Time;durP1;ratioP1;P1;durP2;ratioP2;P2;SDS_P1;SDS_P2;PMS_P1;PMS_P2;Temp;Humidity;BMP_temperature;BMP_pressure;BME280_temperature;BME280_humidity;BME280_pressure;Samples;Min_cycle;Max_cycle;Signal;HPM_P1;HPM_P2
2021/05/01 00:01:05;;;;;;;3.42;2.15;;;17.30;53.30;;;;;;6245472;23;20460;-76
2021/05/01 00:03:30;;;;;;;3.10;2.28;;;17.30;53.20;;;;;;6245691;23;19996;-76
2021/05/01 00:05:56;;;;;;;3.40;1.88;;;17.30;53.30;;;;;;6245189;23;20000;-76
2021/05/01 00:08:23;;;;;;;3.67;2.28;;;17.30;53.20;;;;;;6245435;23;20508;-77
2021/05/01 00:10:49;;;;;;;3.55;2.42;;;17.30;53.20;;;;;;6245117;22;20004;-75
2021/05/01 00:13:15;;;;;;;4.15;2.10;;;17.30;53.20;;;;;;6245091;22;20394;-76
2021/05/01 00:15:41;;;;;;;4.28;2.00;;;17.30;53.10;;;;;;6245302;23;20008;-76
2021/05/01 00:18:07;;;;;;;3.78;2.05;;;17.30;53.20;;;;;;6245170;23;20023;-76
2021/05/01 00:20:33;;;;;;;4.30;2.05;;;17.20;53.10;;;;;;6245578;23;20004;-77
2021/05/01 00:22:58;;;;;;;3.17;2.00;;;17.20;53.20;;;;;;6245447;23;20023;-77
2021/05/01 00:25:24;;;;;;;6.13;2.63;;;17.20;53.20;;;;;;6244734;23;20071;-76
2021/05/01 00:27:50;;;;;;;3.95;2.55;;;17.20;53.20;;;;;;6242624;23;20012;-76
2021/05/01 00:30:16;;;;;;;3.15;2.05;;;17.20;53.10;;;;;;6245040;23;20071;-76
2021/05/01 00:32:42;;;;;;;2.97;2.10;;;17.10;53.10;;;;;;6245138;23;20000;-76
2021/05/01 00:35:08;;;;;;;4.60;2.65;;;17.10;53.20;;;;;;6244803;23;20000;-76
2021/05/01 00:37:34;;;;;;;4.68;2.60;;;17.10;53.10;;;;;;6245065;23;20350;-75
2021/05/01 00:39:59;;;;;;;5.40;2.55;;;17.10;53.10;;;;;;6245219;23;20000;-76
2021/05/01 00:42:25;;;;;;;3.80;2.20;;;17.00;53.10;;;;;;6242901;23;20008;-77
2021/05/01 00:44:51;;;;;;;4.53;2.42;;;17.00;53.10;;;;;;6244972;23;20065;-76
2021/05/01 00:47:16;;;;;;;3.60;2.33;;;17.00;53.10;;;;;;6243171;23;20016;-76
2021/05/01 00:49:42;;;;;;;4.53;2.28;;;17.00;53.00;;;;;;6244865;23;20443;-76
2021/05/01 00:52:08;;;;;;;4.00;2.33;;;17.00;53.00;;;;;;6244897;23;20004;-77
2021/05/01 00:54:33;;;;;;;2.80;1.92;;;16.90;53.00;;;;;;6245043;23;20429;-75
2021/05/01 00:56:59;;;;;;;4.55;2.80;;;16.90;52.90;;;;;;6244826;22;20008;-76
2021/05/01 00:59:25;;;;;;;5.60;2.47;;;16.90;53.00;;;;;;6244878;23;20471;-76
2021/05/01 01:01:53;;;;;;;3.95;2.60;;;16.90;52.90;;;;;;6244828;23;20075;-76
2021/05/01 01:04:19;;;;;;;5.05;3.35;;;16.90;52.90;;;;;;6244917;23;20388;-75
2021/05/01 01:06:45;;;;;;;4.40;2.50;;;16.90;52.90;;;;;;6244554;23;20012;-76
2021/05/01 01:09:12;;;;;;;4.32;2.35;;;16.90;52.80;;;;;;6244455;23;20383;-76
2021/05/01 01:11:37;;;;;;;3.65;2.38;;;16.90;52.90;;;;;;6244241;23;20440;-75
2021/05/01 01:14:07;;;;;;;6.45;2.75;;;16.80;52.80;;;;;;6245065;23;20050;-76
2021/05/01 01:16:34;;;;;;;4.93;2.70;;;16.80;52.80;;;;;;6245029;23;20000;-76
2021/05/01 01:18:59;;;;;;;4.85;2.92;;;16.80;52.80;;;;;;6244553;23;20074;-76
2021/05/01 01:21:26;;;;;;;4.78;3.10;;;16.80;52.80;;;;;;6244517;23;20004;-76
2021/05/01 01:23:52;;;;;;;5.45;2.78;;;16.80;52.70;;;;;;6244398;23;20004;-75
2021/05/01 01:26:18;;;;;;;3.15;2.30;;;16.80;52.80;;;;;;6244142;23;20040;-75
2021/05/01 01:28:44;;;;;;;3.03;2.33;;;16.80;52.70;;;;;;6244557;23;20008;-76
2021/05/01 01:31:10;;;;;;;4.57;2.90;;;16.80;52.70;;;;;;6244464;23;20000;-75
2021/05/01 01:33:37;;;;;;;5.68;2.95;;;16.70;52.60;;;;;;6244673;23;20094;-76
2021/05/01 01:36:05;;;;;;;5.35;3.13;;;16.70;52.60;;;;;;6244632;23;20058;-75
2021/05/01 01:38:31;;;;;;;3.88;2.55;;;16.70;52.60;;;;;;6243997;23;20000;-76
2021/05/01 01:40:57;;;;;;;3.47;2.30;;;16.70;52.60;;;;;;6242750;23;20057;-75
2021/05/01 01:43:25;;;;;;;4.22;2.75;;;16.70;52.50;;;;;;6244430;23;19996;-76
2021/05/01 01:45:51;;;;;;;4.80;3.20;;;16.70;52.50;;;;;;6242593;23;20475;-77
2021/05/01 01:48:16;;;;;;;4.03;2.40;;;16.60;52.40;;;;;;6244290;23;20001;-77
2021/05/01 01:50:42;;;;;;;4.57;2.88;;;16.60;52.40;;;;;;6244598;23;19996;-76
2021/05/01 01:53:08;;;;;;;3.85;2.35;;;16.60;52.40;;;;;;6244487;23;20095;-76
2021/05/01 01:55:35;;;;;;;4.45;2.70;;;16.60;52.40;;;;;;6244439;23;20022;-76
2021/05/01 01:58:00;;;;;;;4.90;2.70;;;16.60;52.40;;;;;;6244220;23;20000;-77
2021/05/01 02:00:28;;;;;;;6.43;3.05;;;16.60;52.30;;;;;;6244215;23;20027;-76
2021/05/01 02:02:54;;;;;;;4.07;2.75;;;16.60;52.30;;;;;;6242371;23;20000;-76
2021/05/01 02:05:21;;;;;;;4.78;2.78;;;16.60;52.30;;;;;;6244021;23;20004;-75
2021/05/01 02:07:46;;;;;;;4.80;2.95;;;16.60;52.30;;;;;;6243834;23;20008;-76
2021/05/01 02:10:13;;;;;;;3.67;3.03;;;16.50;52.30;;;;;;6244004;23;20068;-75
2021/05/01 02:12:40;;;;;;;5.72;3.30;;;16.50;52.20;;;;;;6244505;23;20004;-76
2021/05/01 02:15:10;;;;;;;4.13;2.40;;;16.50;52.20;;;;;;6244462;23;20004;-75
2021/05/01 02:17:42;;;;;;;3.83;2.28;;;16.50;52.20;;;;;;6244281;23;20004;-76
2021/05/01 02:20:09;;;;;;;4.13;2.70;;;16.50;52.20;;;;;;6244381;23;20114;-75
2021/05/01 02:22:35;;;;;;;5.38;2.83;;;16.50;52.20;;;;;;6243772;23;20047;-75
2021/05/01 02:25:01;;;;;;;4.05;3.00;;;16.50;52.10;;;;;;6242463;23;20445;-75
2021/05/01 02:27:26;;;;;;;5.40;3.20;;;16.50;52.10;;;;;;6243699;23;20012;-75
2021/05/01 02:29:52;;;;;;;4.55;3.15;;;16.40;52.10;;;;;;6244011;23;19996;-76
2021/05/01 02:32:18;;;;;;;3.58;2.67;;;16.40;52.00;;;;;;6243859;23;20460;-76
2021/05/01 02:34:44;;;;;;;6.05;3.00;;;16.40;52.00;;;;;;6244116;23;20000;-76
2021/05/01 02:37:09;;;;;;;4.60;3.35;;;16.40;52.00;;;;;;6244186;23;20004;-76
2021/05/01 02:39:36;;;;;;;4.50;2.33;;;16.40;51.90;;;;;;6244284;23;20441;-75
2021/05/01 02:42:01;;;;;;;6.10;3.40;;;16.40;51.80;;;;;;6243965;23;20008;-75
2021/05/01 02:44:27;;;;;;;4.90;2.50;;;16.40;51.90;;;;;;6243802;23;20532;-75
2021/05/01 02:46:53;;;;;;;6.03;2.75;;;16.30;51.80;;;;;;6243754;23;20012;-76
2021/05/01 02:49:19;;;;;;;3.42;2.60;;;16.30;51.80;;;;;;6243878;23;20383;-76
2021/05/01 02:51:44;;;;;;;4.07;2.63;;;16.40;51.80;;;;;;6245841;23;20000;-76
2021/05/01 02:54:10;;;;;;;5.10;3.03;;;16.30;51.80;;;;;;6244754;23;20387;-74
2021/05/01 02:56:36;;;;;;;4.40;2.88;;;16.30;51.70;;;;;;6246031;23;20012;-75
2021/05/01 02:59:02;;;;;;;3.85;2.80;;;16.30;51.70;;;;;;6244319;23;20119;-76
2021/05/01 03:01:27;;;;;;;4.50;2.75;;;16.30;51.70;;;;;;6245845;23;20014;-76
2021/05/01 03:03:53;;;;;;;4.22;2.70;;;16.30;51.70;;;;;;6245749;23;20011;-76
2021/05/01 03:06:19;;;;;;;3.95;2.95;;;16.30;51.70;;;;;;6245613;23;20016;-76
2021/05/01 03:08:44;;;;;;;3.38;2.53;;;16.20;51.60;;;;;;6245795;23;20016;-75
2021/05/01 03:11:10;;;;;;;3.67;2.75;;;16.20;51.60;;;;;;6245829;23;20000;-75
2021/05/01 03:13:36;;;;;;;6.63;3.25;;;16.30;51.60;;;;;;6245681;23;20004;-76
2021/05/01 03:16:02;;;;;;;5.85;2.72;;;16.20;51.50;;;;;;6245916;23;20054;-75
2021/05/01 03:18:27;;;;;;;5.15;2.95;;;16.20;51.60;;;;;;6245631;23;20012;-76
2021/05/01 03:20:53;;;;;;;4.88;2.72;;;16.20;51.50;;;;;;6245426;23;20001;-76
2021/05/01 03:23:20;;;;;;;3.67;2.70;;;16.20;51.50;;;;;;6245785;23;20004;-76
2021/05/01 03:25:46;;;;;;;4.18;2.65;;;16.20;52.00;;;;;;6245463;23;20054;-75
2021/05/01 03:28:12;;;;;;;4.57;2.97;;;16.20;51.40;;;;;;6246147;23;20007;-75
2021/05/01 03:30:38;;;;;;;3.78;2.55;;;16.20;51.40;;;;;;6245422;23;20004;-76
2021/05/01 03:33:03;;;;;;;3.63;2.83;;;16.20;51.30;;;;;;6245122;23;20000;-76
2021/05/01 03:35:29;;;;;;;5.35;2.72;;;16.20;51.40;;;;;;6245388;23;20079;-76
2021/05/01 03:37:55;;;;;;;4.45;2.90;;;16.10;51.30;;;;;;6245753;23;20011;-76
2021/05/01 03:40:21;;;;;;;4.68;2.60;;;16.10;51.30;;;;;;6245506;23;20004;-76
2021/05/01 03:42:48;;;;;;;7.40;3.05;;;16.10;51.30;;;;;;6245778;22;20094;-76
2021/05/01 03:45:14;;;;;;;4.10;2.97;;;16.10;51.30;;;;;;6243932;23;20004;-77
2021/05/01 03:47:39;;;;;;;4.65;3.20;;;16.10;51.30;;;;;;6245221;23;20011;-77
2021/05/01 03:50:07;;;;;;;4.57;2.47;;;16.10;51.20;;;;;;6245093;23;20058;-77
2021/05/01 03:52:34;;;;;;;4.05;2.95;;;16.10;51.20;;;;;;6245491;23;20003;-77
2021/05/01 03:54:59;;;;;;;4.07;2.97;;;16.10;51.20;;;;;;6245366;23;20073;-75
2021/05/01 03:57:25;;;;;;;5.97;3.80;;;16.10;51.20;;;;;;6245247;23;20028;-75
2021/05/01 03:59:50;;;;;;;6.22;4.45;;;16.00;51.10;;;;;;6243720;23;20460;-76
2021/05/01 04:02:16;;;;;;;6.90;4.07;;;16.00;51.10;;;;;;6245036;23;20000;-75
2021/05/01 04:04:42;;;;;;;7.70;5.03;;;16.00;51.10;;;;;;6244216;23;20004;-76
2021/05/01 04:07:08;;;;;;;8.00;4.85;;;16.00;51.10;;;;;;6245236;23;20018;-75
2021/05/01 04:09:33;;;;;;;6.57;4.75;;;16.00;51.10;;;;;;6245225;23;20447;-75
2021/05/01 04:12:00;;;;;;;7.03;5.13;;;16.00;51.00;;;;;;6243398;23;20012;-75
2021/05/01 04:14:25;;;;;;;8.30;5.25;;;16.00;51.00;;;;;;6245223;23;20448;-76
2021/05/01 04:16:51;;;;;;;7.65;5.35;;;16.00;51.00;;;;;;6244986;23;20000;-75
2021/05/01 04:19:17;;;;;;;7.32;5.60;;;16.00;50.90;;;;;;6245390;23;20071;-74
2021/05/01 04:21:43;;;;;;;5.93;4.63;;;16.00;50.90;;;;;;6245564;23;20004;-76
2021/05/01 04:24:09;;;;;;;7.03;5.28;;;15.90;50.90;;;;;;6245117;23;20487;-75
2021/05/01 04:26:34;;;;;;;7.13;5.47;;;15.90;50.90;;;;;;6244710;23;20346;-75
2021/05/01 04:29:00;;;;;;;7.10;4.68;;;15.90;50.80;;;;;;6245171;23;20027;-76
2021/05/01 04:31:26;;;;;;;6.53;5.03;;;15.90;50.80;;;;;;6244864;23;20004;-75
2021/05/01 04:33:52;;;;;;;9.38;5.75;;;15.90;50.80;;;;;;6244784;23;20003;-75
2021/05/01 04:36:17;;;;;;;7.03;5.22;;;15.90;50.80;;;;;;6243653;23;20006;-75
2021/05/01 04:38:43;;;;;;;8.65;5.25;;;15.90;50.80;;;;;;6245494;23;20079;-76
2021/05/01 04:41:09;;;;;;;6.68;4.95;;;15.90;50.80;;;;;;6244970;23;20000;-75
2021/05/01 04:43:34;;;;;;;6.22;4.90;;;15.90;50.80;;;;;;6244676;23;20079;-76
2021/05/01 04:46:00;;;;;;;6.82;4.55;;;15.90;50.80;;;;;;6244635;23;20000;-76
2021/05/01 04:48:29;;;;;;;5.55;4.72;;;15.90;50.80;;;;;;6244665;23;20394;-75
2021/05/01 04:50:54;;;;;;;6.57;4.60;;;15.90;50.80;;;;;;6244914;23;20032;-75
2021/05/01 04:53:21;;;;;;;7.82;4.30;;;15.80;50.70;;;;;;6244705;23;20015;-76
2021/05/01 04:55:47;;;;;;;6.82;4.05;;;15.80;50.70;;;;;;6245139;23;20317;-75
2021/05/01 04:58:13;;;;;;;6.10;4.25;;;15.80;50.60;;;;;;6244664;23;20003;-75
2021/05/01 05:00:38;;;;;;;6.20;4.45;;;15.80;50.60;;;;;;6244445;23;20400;-74
2021/05/01 05:03:04;;;;;;;6.07;4.53;;;15.80;50.60;;;;;;6244763;23;20079;-76
2021/05/01 05:05:30;;;;;;;6.18;4.07;;;15.80;50.50;;;;;;6242893;23;20011;-76
2021/05/01 05:07:55;;;;;;;6.05;4.20;;;15.80;50.50;;;;;;6244492;23;20035;-75
2021/05/01 05:10:21;;;;;;;5.05;4.00;;;15.70;50.40;;;;;;6244642;23;20007;-75
2021/05/01 05:12:48;;;;;;;6.00;4.22;;;15.80;50.50;;;;;;6244576;23;20004;-75
2021/05/01 05:15:14;;;;;;;7.25;4.35;;;15.70;50.50;;;;;;6244464;23;20448;-75
2021/05/01 05:17:40;;;;;;;6.72;4.30;;;15.70;50.50;;;;;;6244561;23;20000;-75
2021/05/01 05:20:07;;;;;;;5.65;3.95;;;15.70;50.50;;;;;;6244662;23;20007;-76
2021/05/01 05:22:32;;;;;;;5.35;3.50;;;15.70;50.50;;;;;;6244444;23;20053;-75
2021/05/01 05:24:58;;;;;;;5.15;3.92;;;15.70;50.40;;;;;;6244515;23;20028;-75
2021/05/01 05:27:24;;;;;;;4.40;3.50;;;15.70;50.40;;;;;;6243960;23;20016;-74
2021/05/01 05:29:50;;;;;;;5.68;3.83;;;15.70;50.40;;;;;;6244624;23;20000;-74
2021/05/01 05:32:20;;;;;;;5.78;3.95;;;15.70;50.50;;;;;;6244916;23;20031;-75
2021/05/01 05:34:47;;;;;;;5.80;4.22;;;15.70;50.50;;;;;;6244819;23;20336;-76
2021/05/01 05:37:12;;;;;;;8.20;4.20;;;15.70;50.50;;;;;;6244353;23;20345;-75
2021/05/01 05:39:40;;;;;;;5.70;3.53;;;15.70;50.50;;;;;;6244330;23;19996;-75
2021/05/01 05:42:08;;;;;;;6.57;3.90;;;15.70;50.50;;;;;;6244275;23;20031;-76
2021/05/01 05:44:34;;;;;;;4.80;3.85;;;15.70;50.50;;;;;;6243915;23;20050;-76
2021/05/01 05:47:00;;;;;;;4.63;3.58;;;15.60;50.50;;;;;;6244239;23;20012;-76
2021/05/01 05:49:26;;;;;;;4.80;3.40;;;15.60;50.40;;;;;;6242524;23;20058;-76
2021/05/01 05:51:51;;;;;;;5.07;3.58;;;15.60;50.50;;;;;;6244325;23;20004;-74
2021/05/01 05:54:17;;;;;;;6.75;3.67;;;15.60;50.50;;;;;;6244501;23;20093;-76
2021/05/01 05:56:43;;;;;;;4.93;3.60;;;15.60;50.50;;;;;;6244176;23;20000;-76
2021/05/01 05:59:08;;;;;;;6.15;3.28;;;15.60;50.40;;;;;;6243998;23;20000;-76
2021/05/01 06:01:39;;;;;;;4.82;3.42;;;15.60;50.40;;;;;;6244489;23;20020;-76
2021/05/01 06:04:14;;;;;;;5.28;3.53;;;15.60;50.40;;;;;;6244180;23;20050;-76
2021/05/01 06:06:44;;;;;;;4.63;3.47;;;15.60;50.40;;;;;;6244036;23;20016;-75
2021/05/01 06:09:11;;;;;;;4.47;3.35;;;15.60;50.40;;;;;;6243997;23;20338;-76
2021/05/01 06:11:37;;;;;;;5.70;3.38;;;15.60;50.40;;;;;;6243927;23;20004;-76
2021/05/01 06:14:04;;;;;;;3.63;2.90;;;15.60;50.40;;;;;;6244126;23;20392;-75
2021/05/01 06:16:34;;;;;;;4.65;3.40;;;15.60;50.40;;;;;;6242429;23;20008;-77
2021/05/01 06:18:59;;;;;;;4.45;3.05;;;15.60;50.40;;;;;;6244001;23;20004;-76
2021/05/01 06:21:25;;;;;;;4.78;3.47;;;15.60;50.40;;;;;;6243991;23;20000;-75
2021/05/01 06:23:51;;;;;;;4.25;3.30;;;15.60;50.40;;;;;;6243780;23;20008;-75
2021/05/01 06:26:18;;;;;;;6.60;3.40;;;15.70;50.40;;;;;;6243656;23;20004;-76
2021/05/01 06:28:45;;;;;;;3.90;3.00;;;15.60;50.40;;;;;;6243916;23;20127;-75
2021/05/01 06:31:10;;;;;;;5.25;3.35;;;15.60;50.40;;;;;;6243694;23;20340;-75
2021/05/01 06:33:39;;;;;;;5.03;3.05;;;15.60;50.40;;;;;;6243995;23;20075;-76
2021/05/01 06:36:06;;;;;;;5.97;3.60;;;15.60;50.50;;;;;;6243963;23;20341;-75
2021/05/01 06:38:34;;;;;;;7.50;3.75;;;15.60;50.50;;;;;;6243909;23;20028;-75
2021/05/01 06:41:05;;;;;;;3.75;2.97;;;15.60;50.50;;;;;;6244066;23;20000;-76
2021/05/01 06:43:50;;;;;;;5.47;3.08;;;15.60;51.00;;;;;;6242478;23;20087;-76
2021/05/01 06:46:21;;;;;;;4.10;2.95;;;15.60;50.50;;;;;;6243852;23;20083;-76
2021/05/01 06:48:53;;;;;;;6.93;4.03;;;15.60;50.50;;;;;;6242102;23;20444;-76
2021/05/01 06:51:20;;;;;;;5.32;3.10;;;15.60;50.50;;;;;;6242599;23;20012;-76
2021/05/01 06:53:46;;;;;;;5.47;3.20;;;15.60;50.50;;;;;;6242189;23;20016;-74
2021/05/01 06:56:14;;;;;;;6.07;3.30;;;15.60;50.50;;;;;;6243893;23;20000;-75
2021/05/01 06:58:41;;;;;;;5.03;3.25;;;15.60;50.50;;;;;;6242188;23;20030;-75
2021/05/01 07:01:11;;;;;;;4.10;2.85;;;15.60;50.50;;;;;;6243667;23;20051;-75
2021/05/01 07:03:44;;;;;;;5.93;3.30;;;15.60;50.50;;;;;;6243916;23;20031;-74
2021/05/01 07:06:19;;;;;;;5.40;3.22;;;15.60;50.50;;;;;;6244081;23;20008;-76
2021/05/01 07:08:44;;;;;;;4.22;2.80;;;15.60;50.50;;;;;;6243954;23;20032;-75
2021/05/01 07:11:12;;;;;;;6.53;3.47;;;15.60;50.60;;;;;;6243868;23;20375;-77
2021/05/01 07:13:39;;;;;;;3.72;2.55;;;15.60;50.60;;;;;;6243584;23;20054;-75
2021/05/01 07:16:07;;;;;;;5.03;3.17;;;15.60;50.60;;;;;;6241892;23;20079;-75
2021/05/01 07:18:33;;;;;;;4.63;2.72;;;15.60;50.60;;;;;;6243626;23;20072;-74
2021/05/01 07:20:59;;;;;;;4.70;2.95;;;15.60;50.70;;;;;;6243768;23;20046;-75
2021/05/01 07:23:26;;;;;;;5.10;3.25;;;15.70;51.10;;;;;;6242701;23;20004;-74
2021/05/01 07:25:52;;;;;;;4.28;3.22;;;15.70;51.10;;;;;;6243863;23;20083;-74
2021/05/01 07:28:23;;;;;;;6.20;3.15;;;15.70;51.20;;;;;;6243763;23;20016;-74
2021/05/01 07:30:55;;;;;;;6.45;3.42;;;15.70;52.20;;;;;;6243548;23;20007;-74
2021/05/01 07:33:20;;;;;;;5.45;3.40;;;15.80;52.60;;;;;;6243817;23;20007;-74
2021/05/01 07:35:50;;;;;;;6.43;3.25;;;15.90;51.60;;;;;;6244085;23;20370;-74
2021/05/01 07:38:16;;;;;;;7.15;3.70;;;16.00;51.50;;;;;;6245372;23;20027;-74
2021/05/01 07:40:42;;;;;;;5.32;3.08;;;16.10;51.40;;;;;;6245401;23;19996;-75
2021/05/01 07:43:08;;;;;;;5.05;2.50;;;16.20;51.50;;;;;;6245227;23;20004;-76
2021/05/01 07:45:37;;;;;;;6.50;3.00;;;16.30;51.40;;;;;;6245650;23;20000;-79
2021/05/01 07:48:04;;;;;;;5.15;2.60;;;16.30;51.30;;;;;;6245028;23;20019;-78
2021/05/01 07:50:30;;;;;;;4.18;2.45;;;16.40;51.20;;;;;;6245202;23;20004;-80
2021/05/01 07:52:56;;;;;;;4.65;2.83;;;16.50;51.10;;;;;;6245750;23;20015;-77
2021/05/01 07:55:23;;;;;;;4.95;2.85;;;16.60;51.00;;;;;;6245160;23;20003;-78
2021/05/01 07:57:49;;;;;;;5.00;2.80;;;16.70;50.90;;;;;;6244980;23;20074;-76
2021/05/01 08:00:19;;;;;;;5.80;2.80;;;16.80;50.80;;;;;;6245500;23;20011;-79
2021/05/01 08:02:46;;;;;;;7.55;2.83;;;16.90;50.70;;;;;;6243360;23;20079;-74
2021/05/01 08:05:12;;;;;;;4.53;2.53;;;16.90;50.60;;;;;;6245309;23;20004;-77
2021/05/01 08:07:38;;;;;;;4.22;2.20;;;17.00;50.50;;;;;;6245119;23;20012;-77
2021/05/01 08:10:06;;;;;;;5.75;2.72;;;17.10;50.50;;;;;;6244526;23;20337;-73
2021/05/01 08:12:32;;;;;;;6.60;2.95;;;17.20;50.40;;;;;;6244169;23;20004;-77
2021/05/01 08:14:57;;;;;;;4.80;3.10;;;17.30;50.40;;;;;;6245631;23;20050;-74
2021/05/01 08:17:23;;;;;;;6.07;2.92;;;17.40;50.40;;;;;;6243153;23;20441;-76
2021/05/01 08:19:54;;;;;;;5.70;3.03;;;17.50;50.90;;;;;;6244782;23;20008;-79
2021/05/01 08:22:20;;;;;;;6.30;2.80;;;17.60;50.20;;;;;;6244933;23;20086;-80
2021/05/01 08:24:46;;;;;;;4.63;2.97;;;17.70;50.40;;;;;;6245080;23;20004;-77
2021/05/01 08:27:12;;;;;;;8.40;2.90;;;17.80;50.40;;;;;;6244382;23;20455;-78
2021/05/01 08:29:38;;;;;;;7.05;3.42;;;17.90;50.00;;;;;;6246170;23;20011;-81
2021/05/01 08:32:04;;;;;;;6.90;3.10;;;17.90;49.80;;;;;;6244646;23;20024;-78
2021/05/01 08:34:29;;;;;;;7.82;3.60;;;18.00;50.10;;;;;;6244589;22;20004;-78
2021/05/01 08:36:55;;;;;;;5.15;2.78;;;18.00;49.60;;;;;;6243988;23;20007;-78
2021/05/01 08:39:21;;;;;;;6.50;3.28;;;18.10;49.50;;;;;;6243710;23;20004;-78
2021/05/01 08:41:46;;;;;;;5.95;3.25;;;18.20;49.40;;;;;;6245021;23;19996;-77
2021/05/01 08:44:12;;;;;;;6.05;3.20;;;18.30;49.90;;;;;;6244659;23;20034;-78
2021/05/01 08:46:38;;;;;;;5.88;2.78;;;18.30;49.30;;;;;;6244360;23;20907;-78
2021/05/01 08:49:07;;;;;;;5.53;2.90;;;18.40;49.20;;;;;;6244464;23;20421;-78
2021/05/01 08:51:33;;;;;;;5.15;2.08;;;18.40;49.20;;;;;;6244158;23;20004;-78
2021/05/01 08:53:59;;;;;;;7.57;2.85;;;18.50;49.20;;;;;;6244652;23;20011;-79
2021/05/01 08:56:25;;;;;;;6.90;2.70;;;18.60;49.20;;;;;;6244668;23;20000;-79
2021/05/01 08:58:58;;;;;;;4.18;2.60;;;18.60;49.10;;;;;;6244348;23;20015;-83
2021/05/01 09:01:27;;;;;;;8.07;2.20;;;18.70;49.10;;;;;;6244281;23;19997;-80
2021/05/01 09:03:54;;;;;;;7.57;2.63;;;18.70;49.40;;;;;;6244741;23;20039;-79
2021/05/01 09:06:22;;;;;;;6.20;2.85;;;18.70;49.50;;;;;;6244121;23;20401;-78
2021/05/01 09:08:58;;;;;;;7.85;2.35;;;18.80;49.50;;;;;;6243739;23;20462;-78
2021/05/01 09:11:43;;;;;;;6.38;2.40;;;18.80;49.40;;;;;;6243107;23;20000;-77
2021/05/01 09:14:24;;;;;;;5.57;2.33;;;18.90;49.10;;;;;;6243830;23;20088;-83
2021/05/01 09:17:01;;;;;;;6.00;3.03;;;18.90;49.00;;;;;;6244245;23;20011;-78
2021/05/01 09:19:38;;;;;;;7.82;2.28;;;18.90;48.90;;;;;;6245038;23;20000;-78
2021/05/01 09:22:06;;;;;;;5.88;2.58;;;19.00;48.90;;;;;;6244325;23;20007;-77
2021/05/01 09:24:33;;;;;;;8.45;2.20;;;19.10;48.80;;;;;;6244880;23;20004;-81
2021/05/01 09:26:59;;;;;;;4.30;1.90;;;19.10;48.70;;;;;;6244592;23;20362;-81
2021/05/01 09:29:28;;;;;;;8.27;2.42;;;19.20;48.80;;;;;;6243830;23;20376;-80
2021/05/01 09:31:54;;;;;;;4.10;1.95;;;19.20;48.70;;;;;;6244286;23;20007;-76
2021/05/01 09:34:33;;;;;;;6.05;2.22;;;19.20;48.40;;;;;;6243370;23;19996;-80
2021/05/01 09:36:59;;;;;;;7.10;2.10;;;19.30;48.50;;;;;;6244454;23;20487;-79
2021/05/01 09:39:27;;;;;;;5.28;1.88;;;19.40;48.40;;;;;;6244008;23;20003;-80
2021/05/01 09:41:54;;;;;;;6.70;2.15;;;19.40;48.30;;;;;;6244301;23;20011;-87
2021/05/01 09:44:23;;;;;;;5.20;2.05;;;19.40;48.30;;;;;;6244525;23;20000;-88
2021/05/01 09:46:51;;;;;;;5.97;1.67;;;19.50;48.30;;;;;;6244609;23;20004;-83
2021/05/01 09:49:25;;;;;;;5.00;1.80;;;19.50;48.30;;;;;;6244981;23;20004;-89
2021/05/01 09:51:58;;;;;;;2.92;1.90;;;19.50;48.20;;;;;;6243252;23;20004;-85
2021/05/01 09:54:31;;;;;;;5.25;1.63;;;19.50;48.20;;;;;;6243241;23;20037;-89
2021/05/01 09:56:59;;;;;;;4.57;1.90;;;19.60;48.10;;;;;;6245307;23;20378;-84
2021/05/01 09:59:41;;;;;;;7.90;2.20;;;19.50;48.00;;;;;;6243332;23;20011;-85
2021/05/01 10:02:12;;;;;;;4.40;1.77;;;19.60;48.60;;;;;;6244819;23;20001;-84
2021/05/01 10:04:39;;;;;;;4.10;1.80;;;19.60;47.90;;;;;;6244723;23;20072;-81
2021/05/01 10:07:09;;;;;;;4.18;1.30;;;19.50;47.80;;;;;;6244477;23;20028;-78
2021/05/01 10:09:36;;;;;;;4.90;1.83;;;19.50;47.80;;;;;;6244496;23;20066;-83
2021/05/01 10:12:10;;;;;;;7.90;2.22;;;19.50;47.90;;;;;;6243994;23;20003;-83
2021/05/01 10:14:52;;;;;;;5.07;1.90;;;19.50;48.00;;;;;;6244292;23;20003;-83
2021/05/01 10:17:21;;;;;;;5.20;2.28;;;19.40;48.00;;;;;;6244024;23;20000;-83
2021/05/01 10:19:55;;;;;;;4.97;2.30;;;19.40;47.90;;;;;;6244790;23;20058;-88
2021/05/01 10:22:32;;;;;;;6.28;2.58;;;19.40;47.90;;;;;;6244371;23;20010;-82
2021/05/01 10:25:33;;;;;;;4.35;2.05;;;19.40;48.40;;;;;;6243844;23;20000;-79
2021/05/01 10:28:03;;;;;;;5.55;2.35;;;19.30;47.90;;;;;;6238467;22;20095;-84
2021/05/01 10:30:35;;;;;;;5.30;2.05;;;19.30;47.90;;;;;;6241095;23;20001;-83
2021/05/01 10:33:33;;;;;;;4.10;2.00;;;19.40;47.90;;;;;;6244998;23;20087;-83
2021/05/01 10:36:18;;;;;;;5.53;2.55;;;19.30;47.70;;;;;;6243701;23;19997;-80
2021/05/01 10:38:44;;;;;;;5.20;2.67;;;19.30;47.70;;;;;;6243634;23;20030;-83
2021/05/01 10:41:17;;;;;;;5.03;2.15;;;19.30;47.80;;;;;;6243781;23;20001;-78
2021/05/01 10:43:54;;;;;;;4.80;2.22;;;19.30;47.80;;;;;;6243687;23;20083;-82
2021/05/01 10:46:30;;;;;;;5.25;2.53;;;19.20;47.80;;;;;;6243424;23;21974;-82
2021/05/01 10:48:58;;;;;;;5.28;2.33;;;19.20;47.80;;;;;;6243642;23;20008;-82
2021/05/01 10:51:28;;;;;;;3.83;2.15;;;19.20;47.80;;;;;;6243532;23;20443;-80
2021/05/01 10:54:13;;;;;;;4.47;2.28;;;19.10;47.80;;;;;;6243390;23;20014;-82
2021/05/01 10:56:44;;;;;;;5.28;2.55;;;19.20;48.50;;;;;;6243273;23;20004;-77
2021/05/01 10:59:21;;;;;;;5.82;2.63;;;19.20;47.90;;;;;;6243262;23;19996;-78
2021/05/01 11:01:49;;;;;;;2.80;2.00;;;19.20;48.00;;;;;;6243373;23;20004;-83
2021/05/01 11:04:26;;;;;;;3.45;1.92;;;19.10;48.20;;;;;;6243578;23;20532;-84
2021/05/01 11:07:07;;;;;;;5.40;2.75;;;19.10;48.30;;;;;;6241471;23;20122;-85
2021/05/01 11:09:41;;;;;;;5.13;2.63;;;19.10;48.30;;;;;;6241501;23;20384;-84
2021/05/01 11:12:12;;;;;;;6.72;2.80;;;19.10;48.30;;;;;;6243077;23;20011;-80
2021/05/01 11:14:47;;;;;;;7.50;3.03;;;19.20;48.60;;;;;;6244582;23;20085;-83
2021/05/01 11:17:21;;;;;;;5.03;2.47;;;19.10;48.50;;;;;;6245388;23;20011;-84
2021/05/01 11:19:47;;;;;;;4.03;2.30;;;19.20;48.60;;;;;;6245049;23;19997;-83
2021/05/01 11:22:14;;;;;;;4.97;2.60;;;19.10;48.70;;;;;;6244891;23;20004;-79
2021/05/01 11:24:42;;;;;;;6.65;2.80;;;19.20;48.90;;;;;;6245203;23;20004;-78
2021/05/01 11:27:08;;;;;;;5.03;2.50;;;19.20;49.00;;;;;;6244445;23;20012;-79
2021/05/01 11:29:34;;;;;;;5.45;2.40;;;19.20;49.00;;;;;;6244916;23;20004;-84
2021/05/01 11:32:01;;;;;;;3.95;2.50;;;19.20;49.00;;;;;;6244790;23;20000;-82
2021/05/01 11:34:30;;;;;;;3.65;2.15;;;19.20;49.00;;;;;;6244923;23;19996;-83
2021/05/01 11:37:01;;;;;;;4.35;2.03;;;19.20;49.00;;;;;;6243228;23;20004;-81
2021/05/01 11:39:28;;;;;;;3.85;2.22;;;19.20;48.90;;;;;;6244880;23;20080;-84
2021/05/01 11:41:54;;;;;;;3.83;1.75;;;19.30;48.90;;;;;;6244903;23;20467;-81
2021/05/01 11:44:19;;;;;;;4.72;1.95;;;19.30;48.80;;;;;;6244985;23;20014;-80
2021/05/01 11:47:02;;;;;;;5.20;2.03;;;19.30;49.00;;;;;;6245019;23;20411;-83
2021/05/01 11:49:31;;;;;;;3.50;1.83;;;19.20;49.00;;;;;;6243434;23;20012;-82
2021/05/01 11:52:09;;;;;;;4.30;1.95;;;19.20;48.90;;;;;;6245216;23;20004;-84
2021/05/01 11:55:03;;;;;;;7.15;2.33;;;19.20;49.40;;;;;;6244907;23;20330;-86
2021/05/01 11:57:49;;;;;;;3.17;1.83;;;19.20;49.90;;;;;;6244268;23;20456;-78
2021/05/01 12:00:31;;;;;;;2.97;1.65;;;19.30;49.50;;;;;;6244324;23;20075;-77
2021/05/01 12:02:58;;;;;;;5.25;1.88;;;19.30;49.20;;;;;;6244653;23;20495;-77
2021/05/01 12:05:37;;;;;;;3.58;1.90;;;19.20;49.30;;;;;;6244600;23;20000;-77
2021/05/01 12:08:21;;;;;;;4.55;2.00;;;19.20;49.70;;;;;;6244245;23;20016;-78
2021/05/01 12:10:53;;;;;;;3.15;1.70;;;19.30;50.00;;;;;;6244597;23;20001;-78
2021/05/01 12:13:36;;;;;;;3.75;1.83;;;19.30;49.70;;;;;;6244502;23;20337;-78
2021/05/01 12:16:04;;;;;;;4.50;1.95;;;19.30;49.70;;;;;;6243056;23;20007;-78
2021/05/01 12:18:47;;;;;;;3.80;1.75;;;19.40;49.60;;;;;;6242810;23;20019;-77
2021/05/01 12:21:17;;;;;;;3.70;1.90;;;19.50;49.60;;;;;;6244558;23;20341;-77
2021/05/01 12:23:44;;;;;;;3.75;1.88;;;19.60;49.50;;;;;;6244449;23;20043;-78
2021/05/01 12:26:29;;;;;;;2.88;1.63;;;19.60;49.50;;;;;;6244572;23;20066;-78
2021/05/01 12:28:55;;;;;;;3.03;1.58;;;19.60;49.90;;;;;;6242623;23;20352;-77
2021/05/01 12:31:41;;;;;;;3.25;1.63;;;19.60;49.40;;;;;;6244385;23;20000;-78
2021/05/01 12:34:07;;;;;;;6.43;1.85;;;19.70;49.40;;;;;;6244999;23;20004;-78
2021/05/01 12:36:33;;;;;;;3.83;1.65;;;19.70;49.40;;;;;;6244120;23;20004;-77
2021/05/01 12:38:59;;;;;;;3.38;1.85;;;19.80;49.50;;;;;;6244375;23;19997;-78
2021/05/01 12:41:29;;;;;;;2.80;1.50;;;19.80;49.50;;;;;;6242750;23;20011;-78
2021/05/01 12:43:55;;;;;;;2.97;1.13;;;19.90;49.40;;;;;;6244691;23;20008;-77
2021/05/01 12:46:37;;;;;;;7.20;1.60;;;20.10;49.40;;;;;;6244160;23;20054;-73
2021/05/01 12:49:05;;;;;;;5.95;1.70;;;20.30;49.00;;;;;;6244436;23;20008;-72
2021/05/01 12:51:36;;;;;;;4.72;1.70;;;20.40;48.50;;;;;;6243995;23;20091;-72
2021/05/01 12:54:20;;;;;;;2.90;1.52;;;20.50;48.50;;;;;;6244369;23;20008;-72